Shirley Mills, Maine
Current Conditions -  °F | °C
As of 7:53 PM on Tuesday 21 Oct 2014 (Local Time) from KMLT Reporting Station
Overcast Overcast  
Wind Chill: 44°   Ceiling: 5500
Heat Index: 44°   Visibility: 10mi
Dew Point: 38°   Wind: 3mph
Humidity: 79%   Direction: NA
Pressure: 30.19"   Gusts: NA
Location:  45.37°N, 69.62°W
Report Text: KMLT 212353Z AUTO VRB03KT 10SM FEW030 OVC055 07/03 A3019 RMK AO2 SLP232 60000 T00670033 10089 20067 52015
Loading
Personal Weather Stations






























Interactive Weather Map
Tropical Storm Tracking
New forecast layout! Learn more

10-Day Weather Forecast

Advertisements
Track Severe Weather on mobile